Time;durP1;ratioP1;P1;durP2;ratioP2;P2;SDS_P1;SDS_P2;PMS_P1;PMS_P2;Temp;Humidity;BMP_temperature;BMP_pressure;BME280_temperature;BME280_humidity;BME280_pressure;Samples;Min_cycle;Max_cycle;Signal;HPM_P1;HPM_P2
2022/05/26 00:02:30;;;;;;;5.27;1.83;;;;;;;14.91;77.91;101639.28;5264977;28;20104;-73
2022/05/26 00:05:02;;;;;;;3.37;1.70;;;;;;;14.97;77.50;101636.25;5296688;28;20024;-72
2022/05/26 00:07:33;;;;;;;7.40;1.93;;;;;;;14.91;78.01;101641.91;5290552;28;20020;-72
2022/05/26 00:10:05;;;;;;;5.90;2.50;;;;;;;14.90;78.09;101629.69;5275924;28;20020;-73
2022/05/26 00:12:37;;;;;;;3.87;1.70;;;;;;;14.92;78.31;101638.34;5277813;28;20024;-73
2022/05/26 00:15:08;;;;;;;6.03;1.83;;;;;;;14.93;78.19;101637.41;5296497;28;20035;-72
2022/05/26 00:17:40;;;;;;;6.30;2.17;;;;;;;14.99;78.37;101644.88;5296299;28;20356;-73
2022/05/26 00:20:11;;;;;;;5.40;1.93;;;;;;;14.89;78.56;101649.06;5276414;28;20028;-73
2022/05/26 00:22:43;;;;;;;6.30;3.10;;;;;;;14.77;79.11;101634.88;5275026;28;20040;-73
2022/05/26 00:25:14;;;;;;;5.27;2.60;;;;;;;14.82;79.22;101643.38;5266615;28;20044;-73
2022/05/26 00:27:45;;;;;;;4.13;2.17;;;;;;;14.90;79.26;101648.16;5271586;28;20066;-73
2022/05/26 00:30:17;;;;;;;6.27;1.97;;;;;;;14.87;79.32;101653.63;5274505;28;20035;-73
2022/05/26 00:32:48;;;;;;;5.47;2.37;;;;;;;14.85;79.39;101648.44;5251412;28;20029;-73
2022/05/26 00:35:20;;;;;;;6.47;2.73;;;;;;;14.88;79.24;101652.69;5266564;28;20102;-73
2022/05/26 00:37:57;;;;;;;9.10;3.13;;;;;;;14.94;79.16;101657.53;5274293;28;20028;-72
2022/05/26 00:40:29;;;;;;;8.47;2.80;;;;;;;14.85;79.59;101653.72;5257481;28;20350;-72
2022/05/26 00:43:00;;;;;;;7.13;2.87;;;;;;;14.90;79.35;101656.06;5255675;28;20053;-71
2022/05/26 00:45:42;;;;;;;7.73;2.93;;;;;;;14.94;79.48;101659.34;5255513;28;20029;-71
2022/05/26 00:48:17;;;;;;;9.53;3.17;;;;;;;14.85;80.29;101663.44;5268682;28;20103;-72
2022/05/26 00:50:53;;;;;;;5.70;2.80;;;;;;;14.88;79.86;101660.59;5272782;28;20029;-72
2022/05/26 00:53:24;;;;;;;6.60;3.33;;;;;;;14.92;79.66;101666.50;5255001;28;20021;-72
2022/05/26 00:56:11;;;;;;;8.13;2.90;;;;;;;14.92;79.45;101654.19;5266378;28;20119;-72
2022/05/26 00:58:45;;;;;;;11.03;3.20;;;;;;;14.75;80.42;101656.06;5275362;28;20036;-72
2022/05/26 01:01:18;;;;;;;8.23;3.17;;;;;;;14.80;80.66;101657.56;5269995;28;20036;-72
2022/05/26 01:04:00;;;;;;;8.67;3.30;;;;;;;14.90;79.73;101665.75;5262885;28;20028;-72
2022/05/26 01:06:42;;;;;;;9.33;3.53;;;;;;;14.86;80.13;101660.69;5255822;28;20021;-72
2022/05/26 01:09:14;;;;;;;10.77;2.97;;;;;;;14.74;81.02;101656.19;5257161;28;20507;-71
2022/05/26 01:11:46;;;;;;;9.77;3.10;;;;;;;14.86;80.51;101665.09;5267419;28;20036;-71
2022/05/26 01:14:25;;;;;;;8.70;3.00;;;;;;;14.90;80.26;101663.13;5274810;28;20028;-72
2022/05/26 01:17:16;;;;;;;13.50;3.07;;;;;;;14.87;80.39;101664.19;5264634;28;20025;-72
2022/05/26 01:20:03;;;;;;;9.50;3.43;;;;;;;14.84;80.07;101656.44;5272909;28;20089;-72
2022/05/26 01:22:54;;;;;;;8.47;3.00;;;;;;;14.84;80.76;101669.63;5269735;28;20457;-72
2022/05/26 01:25:49;;;;;;;11.70;3.50;;;;;;;14.82;80.77;101669.72;5275051;28;20099;-72
2022/05/26 01:28:27;;;;;;;13.30;4.50;;;;;;;14.82;81.35;101680.28;5256630;28;20104;-72
2022/05/26 01:31:24;;;;;;;9.00;3.77;;;;;;;14.94;80.27;101672.53;5257579;28;20036;-72
2022/05/26 01:34:13;;;;;;;13.90;3.87;;;;;;;14.86;80.72;101676.50;5265815;28;20020;-72
2022/05/26 01:37:04;;;;;;;10.27;3.83;;;;;;;14.90;80.50;101673.66;5254685;28;20033;-72
2022/05/26 01:39:47;;;;;;;9.80;3.70;;;;;;;14.75;82.21;101674.53;5253825;28;20040;-72
2022/05/26 01:42:21;;;;;;;13.57;4.70;;;;;;;14.87;81.27;101677.38;5267781;28;20028;-72
2022/05/26 01:45:07;;;;;;;8.37;3.50;;;;;;;14.87;81.11;101678.19;5273434;28;20025;-72
2022/05/26 01:47:57;;;;;;;10.73;3.67;;;;;;;14.86;80.46;101680.94;5264897;28;20460;-72
2022/05/26 01:50:54;;;;;;;14.13;3.87;;;;;;;14.87;80.78;101690.56;5265320;28;20039;-72
2022/05/26 01:53:30;;;;;;;13.03;3.90;;;;;;;14.86;81.42;101680.94;5274549;28;20025;-73
2022/05/26 01:56:21;;;;;;;11.23;5.13;;;;;;;14.83;81.51;101692.53;5271460;28;20056;-72
2022/05/26 01:59:14;;;;;;;13.93;4.77;;;;;;;14.75;82.26;101690.34;5255230;28;20159;-72
2022/05/26 02:01:52;;;;;;;13.30;5.10;;;;;;;14.83;81.83;101699.59;5261866;28;20039;-73
2022/05/26 02:04:32;;;;;;;11.23;5.00;;;;;;;14.86;81.12;101691.47;5274788;28;20659;-72
2022/05/26 02:07:14;;;;;;;14.33;5.27;;;;;;;14.87;81.55;101693.19;5293813;28;20048;-72
2022/05/26 02:09:45;;;;;;;13.93;6.17;;;;;;;14.76;82.09;101699.13;5275213;28;20024;-72
2022/05/26 02:12:26;;;;;;;17.13;5.87;;;;;;;14.82;81.75;101700.56;5277917;28;20055;-72
2022/05/26 02:15:08;;;;;;;13.60;6.13;;;;;;;14.76;82.30;101707.88;5267744;28;20029;-72
2022/05/26 02:17:47;;;;;;;15.87;6.17;;;;;;;14.79;81.80;101703.34;5257513;28;20041;-72
2022/05/26 02:20:32;;;;;;;12.37;6.00;;;;;;;14.83;81.59;101705.72;5257222;28;20021;-72
2022/05/26 02:23:17;;;;;;;15.80;7.30;;;;;;;14.82;81.72;101704.00;5257269;28;20476;-72
2022/05/26 02:25:49;;;;;;;15.27;6.70;;;;;;;14.72;82.15;101709.00;5256166;28;20039;-72
2022/05/26 02:28:21;;;;;;;16.33;7.57;;;;;;;14.72;82.08;101710.78;5276991;28;20008;-72
2022/05/26 02:30:54;;;;;;;15.27;6.63;;;;;;;14.72;82.22;101716.91;5256669;28;20056;-72
2022/05/26 02:33:25;;;;;;;15.60;6.40;;;;;;;14.68;82.63;101711.94;5257915;28;20021;-73
2022/05/26 02:35:57;;;;;;;12.00;5.93;;;;;;;14.72;82.23;101714.28;5262094;28;20036;-73
2022/05/26 02:38:28;;;;;;;23.50;7.13;;;;;;;14.70;82.45;101716.16;5275110;28;20028;-73
2022/05/26 02:41:01;;;;;;;19.93;7.13;;;;;;;14.72;82.32;101719.56;5258397;28;20024;-72
2022/05/26 02:43:33;;;;;;;17.63;6.57;;;;;;;14.78;82.37;101725.38;5267907;28;20455;-71
2022/05/26 02:46:12;;;;;;;15.43;5.90;;;;;;;14.76;82.34;101728.13;5264457;28;20040;-72
2022/05/26 02:49:01;;;;;;;18.13;7.03;;;;;;;14.75;82.29;101729.03;5264224;28;20016;-72
2022/05/26 02:51:59;;;;;;;19.00;6.90;;;;;;;14.72;83.02;101730.09;5257173;28;20041;-72
2022/05/26 02:55:01;;;;;;;18.90;7.63;;;;;;;14.78;82.35;101722.75;5276333;28;20046;-72
2022/05/26 02:57:44;;;;;;;15.27;6.83;;;;;;;14.76;82.40;101734.25;5261240;28;20033;-73
2022/05/26 03:00:19;;;;;;;16.60;6.90;;;;;;;14.64;83.02;101729.75;5272525;28;20029;-72
2022/05/26 03:03:18;;;;;;;21.13;7.93;;;;;;;14.71;82.16;101730.22;5274333;28;20426;-72
2022/05/26 03:06:13;;;;;;;18.00;7.33;;;;;;;14.64;82.72;101729.75;5273680;28;20062;-73
2022/05/26 03:08:46;;;;;;;13.52;6.90;;;;;;;14.66;82.95;101732.28;5266759;28;20024;-72
2022/05/26 03:11:22;;;;;;;19.33;7.70;;;;;;;14.64;83.23;101727.13;5271487;28;20376;-72
2022/05/26 03:13:54;;;;;;;16.23;7.27;;;;;;;14.60;83.32;101730.88;5257059;28;20025;-73
2022/05/26 03:16:25;;;;;;;24.57;7.73;;;;;;;14.52;83.52;101726.94;5274065;28;20033;-72
2022/05/26 03:18:58;;;;;;;23.20;7.37;;;;;;;14.55;83.53;101736.44;5273252;28;20048;-73
2022/05/26 03:21:29;;;;;;;20.30;7.93;;;;;;;14.58;83.04;101732.75;5275754;28;20119;-73
2022/05/26 03:24:00;;;;;;;16.23;7.57;;;;;;;14.50;83.82;101739.34;5276665;28;20104;-73
2022/05/26 03:26:32;;;;;;;21.97;7.80;;;;;;;14.60;83.34;101733.50;5270514;28;20063;-73
2022/05/26 03:29:04;;;;;;;21.10;9.33;;;;;;;14.60;83.42;101744.06;5262290;28;20017;-73
2022/05/26 03:31:35;;;;;;;18.93;7.23;;;;;;;14.60;83.42;101749.34;5274439;28;20032;-73
2022/05/26 03:42:36;;;;;;;21.17;8.00;;;;;;;14.60;83.07;101762.50;5260456;28;20037;-72
2022/05/26 03:45:09;;;;;;;19.40;7.03;;;;;;;14.52;83.64;101760.38;5270867;28;20464;-72
2022/05/26 03:47:41;;;;;;;25.10;8.03;;;;;;;14.52;83.73;101763.81;5263541;28;20048;-73
2022/05/26 03:50:14;;;;;;;16.60;7.47;;;;;;;14.47;84.12;101763.25;5261220;28;20029;-72
2022/05/26 03:52:45;;;;;;;20.00;7.53;;;;;;;14.53;83.81;101769.97;5276845;28;20078;-72
2022/05/26 03:55:16;;;;;;;16.30;6.53;;;;;;;14.31;85.57;101766.03;5275065;28;20024;-72
2022/05/26 03:57:48;;;;;;;16.70;8.23;;;;;;;14.44;84.49;101775.78;5274824;28;20112;-72
2022/05/26 04:00:22;;;;;;;15.80;7.47;;;;;;;14.43;84.61;101774.09;5279501;28;20644;-72
2022/05/26 04:02:53;;;;;;;22.73;7.53;;;;;;;14.37;84.31;101765.63;5265294;28;20031;-72
2022/05/26 04:05:25;;;;;;;21.77;6.27;;;;;;;14.37;84.39;101776.19;5270388;28;20020;-72
2022/05/26 04:07:56;;;;;;;20.60;8.03;;;;;;;14.41;84.29;101784.75;5261571;28;20057;-72
2022/05/26 04:10:28;;;;;;;18.87;6.73;;;;;;;14.33;84.70;101779.94;5291425;28;20020;-73
2022/05/26 04:12:59;;;;;;;21.30;6.77;;;;;;;14.35;84.62;101785.97;5256986;28;20100;-73
2022/05/26 04:15:30;;;;;;;23.77;6.90;;;;;;;14.28;84.63;101782.84;5273389;28;20437;-73
2022/05/26 04:18:02;;;;;;;21.67;6.80;;;;;;;14.23;85.15;101790.19;5260182;28;20045;-73
2022/05/26 04:20:33;;;;;;;19.17;7.27;;;;;;;14.26;85.05;101779.47;5254866;28;20031;-72
2022/05/26 04:23:04;;;;;;;20.63;6.93;;;;;;;14.19;85.35;101793.94;5254974;28;20432;-72
2022/05/26 04:25:36;;;;;;;21.60;7.37;;;;;;;14.12;85.78;101793.47;5259917;28;20031;-72
2022/05/26 04:28:07;;;;;;;27.07;6.97;;;;;;;14.23;85.46;101800.72;5266751;28;20047;-72
2022/05/26 04:30:38;;;;;;;24.60;8.47;;;;;;;14.22;86.19;101808.72;5262106;28;20049;-72
2022/05/26 04:33:10;;;;;;;21.63;7.13;;;;;;;14.26;85.56;101799.72;5253460;28;20017;-72
2022/05/26 04:35:42;;;;;;;24.23;6.30;;;;;;;14.23;85.48;101794.59;5255363;28;20223;-72
2022/05/26 04:38:13;;;;;;;24.87;6.60;;;;;;;14.24;85.60;101805.03;5254136;28;20044;-72
2022/05/26 04:40:45;;;;;;;20.77;6.50;;;;;;;14.28;85.38;101813.63;5247907;28;20029;-72
2022/05/26 04:43:17;;;;;;;24.63;6.53;;;;;;;14.25;85.33;101790.94;5264949;28;20559;-73
2022/05/26 04:45:48;;;;;;;25.87;7.00;;;;;;;14.26;85.27;101803.16;5266130;28;20024;-73
2022/05/26 04:48:21;;;;;;;24.77;7.73;;;;;;;14.31;85.58;101813.44;5274375;28;20051;-73
2022/05/26 04:50:54;;;;;;;20.88;6.93;;;;;;;14.35;85.39;101819.34;5273378;28;20028;-73
2022/05/26 04:53:25;;;;;;;22.47;8.23;;;;;;;14.33;85.33;101810.72;5254574;28;20025;-73
2022/05/26 04:55:57;;;;;;;17.07;6.23;;;;;;;14.33;85.37;101823.91;5253953;28;20029;-73
2022/05/26 04:58:28;;;;;;;18.97;6.63;;;;;;;14.19;85.88;101815.00;5263641;28;20029;-72
2022/05/26 05:00:59;;;;;;;22.47;6.67;;;;;;;14.32;86.16;101835.34;5262503;28;20476;-73
2022/05/26 05:03:30;;;;;;;20.83;6.47;;;;;;;14.33;85.49;101831.81;5265729;28;20403;-73
2022/05/26 05:06:02;;;;;;;22.10;8.20;;;;;;;14.40;85.32;101833.09;5254321;28;20052;-74
2022/05/26 05:08:33;;;;;;;24.63;8.47;;;;;;;14.40;85.15;101841.00;5236056;28;20029;-73
2022/05/26 05:11:07;;;;;;;23.53;7.00;;;;;;;14.39;85.32;101842.81;5271168;28;20041;-73
2022/05/26 05:13:38;;;;;;;23.35;7.13;;;;;;;14.42;84.88;101847.03;5254430;28;20028;-73
2022/05/26 05:16:26;;;;;;;20.00;7.00;;;;;;;14.40;85.17;101857.69;5251502;28;20031;-73
2022/05/26 05:18:58;;;;;;;21.00;7.57;;;;;;;14.43;85.29;101847.91;5274851;28;20048;-73
2022/05/26 05:21:37;;;;;;;22.13;7.60;;;;;;;14.50;85.10;101849.22;5267981;28;20033;-73
2022/05/26 05:24:17;;;;;;;24.23;6.67;;;;;;;14.52;84.55;101850.00;5267955;28;20035;-73
2022/05/26 05:26:55;;;;;;;18.20;7.07;;;;;;;14.60;84.66;101860.03;5261934;28;20033;-73
2022/05/26 05:29:30;;;;;;;25.40;8.00;;;;;;;14.56;84.51;101859.38;5255745;28;20059;-73
2022/05/26 05:32:17;;;;;;;20.47;6.40;;;;;;;14.62;84.47;101868.72;5253294;28;20031;-73
2022/05/26 05:34:53;;;;;;;25.73;6.83;;;;;;;14.66;84.24;101874.66;5269965;28;20028;-72
2022/05/26 05:37:24;;;;;;;25.77;8.03;;;;;;;14.62;84.20;101866.09;5263066;28;20380;-72
2022/05/26 05:39:59;;;;;;;22.13;6.37;;;;;;;14.71;84.48;101878.72;5261356;28;20067;-74
2022/05/26 05:42:30;;;;;;;22.83;7.10;;;;;;;14.72;84.36;101880.41;5261141;28;20067;-73
2022/05/26 05:45:02;;;;;;;30.90;8.97;;;;;;;14.74;83.77;101873.25;5275221;28;20033;-73
2022/05/26 05:47:34;;;;;;;23.00;7.20;;;;;;;14.73;84.12;101868.91;5269252;28;20056;-73
2022/05/26 05:50:05;;;;;;;20.63;7.30;;;;;;;14.87;83.44;101878.63;5256759;28;20483;-73
2022/05/26 05:52:37;;;;;;;24.23;7.37;;;;;;;14.92;83.48;101882.78;5258290;28;20055;-73
2022/05/26 05:55:09;;;;;;;23.87;7.00;;;;;;;14.99;82.70;101882.28;5263894;28;20025;-73
2022/05/26 05:57:40;;;;;;;24.40;7.90;;;;;;;14.98;83.02;101877.97;5257727;28;20036;-73
2022/05/26 06:00:12;;;;;;;21.10;7.13;;;;;;;15.06;82.69;101889.84;5258939;28;20029;-73
2022/05/26 06:02:43;;;;;;;25.90;8.10;;;;;;;15.07;82.90;101891.53;5273230;28;20033;-72
2022/05/26 06:05:15;;;;;;;21.17;7.73;;;;;;;15.09;83.79;101892.28;5266620;28;20028;-74
2022/05/26 06:07:46;;;;;;;26.93;8.23;;;;;;;15.27;82.18;101889.44;5277975;28;20064;-72
2022/05/26 06:10:17;;;;;;;28.70;9.40;;;;;;;15.29;81.20;101892.81;5273753;28;20043;-73
2022/05/26 06:12:49;;;;;;;28.10;7.57;;;;;;;15.32;81.53;101905.81;5275228;28;20107;-73
2022/05/26 06:15:20;;;;;;;20.10;7.20;;;;;;;15.31;81.35;101897.03;5271233;28;20024;-73
2022/05/26 06:17:52;;;;;;;23.20;7.30;;;;;;;15.40;81.35;101902.69;5266499;28;20037;-75
2022/05/26 06:20:23;;;;;;;20.60;6.17;;;;;;;15.47;80.87;101896.06;5270844;28;20032;-73
2022/05/26 06:22:55;;;;;;;21.83;7.63;;;;;;;15.55;80.38;101908.78;5275569;28;20032;-74
2022/05/26 06:25:26;;;;;;;20.43;8.17;;;;;;;15.55;79.98;101908.78;5267055;28;20556;-74
2022/05/26 06:30:47;;;;;;;23.47;8.57;;;;;;;15.64;79.81;101907.34;5257909;28;20044;-73
2022/05/26 06:39:04;;;;;;;25.53;8.63;;;;;;;15.75;80.07;101918.06;5281355;28;20465;-74
2022/05/26 06:44:25;;;;;;;24.57;9.50;;;;;;;15.87;79.14;101919.03;5287593;28;20028;-73
2022/05/26 06:46:56;;;;;;;21.93;8.23;;;;;;;15.97;77.35;101929.84;5277134;28;20032;-72
2022/05/26 06:49:27;;;;;;;21.13;8.93;;;;;;;15.91;76.81;101925.84;5286738;28;20416;-73
2022/05/26 06:51:59;;;;;;;19.00;8.47;;;;;;;15.89;76.73;101919.78;5273161;28;20383;-74
2022/05/26 06:54:36;;;;;;;20.70;9.67;;;;;;;16.03;76.53;101933.91;5277060;28;20047;-73
2022/05/26 06:57:09;;;;;;;24.33;10.27;;;;;;;16.06;76.39;101945.13;5277002;28;20618;-73
2022/05/26 06:59:40;;;;;;;25.83;9.73;;;;;;;16.13;76.34;101944.75;5276131;28;20475;-73
2022/05/26 07:02:13;;;;;;;23.67;9.63;;;;;;;16.29;76.03;101939.25;5288418;28;20043;-73
2022/05/26 07:04:44;;;;;;;19.57;10.13;;;;;;;16.44;74.71;101942.69;5277054;28;20031;-73
2022/05/26 07:07:16;;;;;;;20.67;9.73;;;;;;;16.71;73.78;101944.41;5287303;28;20028;-73
2022/05/26 07:09:47;;;;;;;19.27;9.07;;;;;;;16.69;72.70;101941.84;5298348;28;20024;-74
2022/05/26 07:12:18;;;;;;;22.00;8.00;;;;;;;16.64;72.41;101938.69;5296968;28;20771;-74
2022/05/26 07:14:50;;;;;;;24.50;8.80;;;;;;;16.67;71.38;101959.63;5289666;28;20044;-74
2022/05/26 07:17:21;;;;;;;17.87;7.47;;;;;;;16.71;72.04;101954.13;5255519;28;20399;-72
2022/05/26 07:19:53;;;;;;;17.67;7.27;;;;;;;16.51;71.49;101932.53;5255096;28;20042;-73
2022/05/26 07:22:24;;;;;;;19.93;8.03;;;;;;;16.74;70.83;101953.94;5263035;28;20028;-74
2022/05/26 07:24:56;;;;;;;17.20;8.13;;;;;;;16.72;71.00;101932.03;5253188;28;20024;-71
2022/05/26 07:27:28;;;;;;;17.90;7.37;;;;;;;16.71;70.88;101956.75;5266040;28;20081;-72
2022/05/26 07:29:59;;;;;;;15.53;6.80;;;;;;;16.64;70.07;101943.97;5264791;28;20079;-72
2022/05/26 07:32:31;;;;;;;20.50;7.67;;;;;;;16.60;68.49;101937.19;5263846;28;20084;-73
2022/05/26 07:35:02;;;;;;;18.47;7.57;;;;;;;16.51;69.83;101936.00;5267338;28;20051;-71
2022/05/26 07:43:13;;;;;;;18.90;7.37;;;;;;;17.37;66.08;101972.53;5276218;28;20044;-73
2022/05/26 07:45:45;;;;;;;14.57;6.60;;;;;;;17.51;65.18;101953.00;5290915;28;20455;-73
2022/05/26 07:48:16;;;;;;;14.40;6.43;;;;;;;18.23;64.79;101979.66;5292520;28;20456;-73
2022/05/26 07:50:48;;;;;;;16.97;6.60;;;;;;;18.26;63.42;101983.88;5287779;28;20030;-72
2022/05/26 07:53:19;;;;;;;14.00;6.73;;;;;;;17.96;64.06;101945.41;5279906;28;20193;-72
2022/05/26 07:55:51;;;;;;;17.90;6.67;;;;;;;18.09;63.17;101980.66;5284862;28;20032;-73
2022/05/26 07:58:22;;;;;;;16.40;7.00;;;;;;;17.98;63.49;101970.81;5275916;28;20035;-73
2022/05/26 08:00:54;;;;;;;15.13;6.23;;;;;;;18.68;63.27;101971.91;5273822;28;20456;-73
2022/05/26 08:03:26;;;;;;;16.90;5.60;;;;;;;19.03;61.71;101992.22;5275746;28;20170;-73
2022/05/26 08:05:58;;;;;;;19.57;7.40;;;;;;;19.22;61.05;101981.03;5257650;28;20028;-73
2022/05/26 08:08:34;;;;;;;17.37;6.13;;;;;;;20.07;59.32;101990.31;5275838;28;20071;-72
2022/05/26 08:11:05;;;;;;;15.97;5.50;;;;;;;20.70;56.35;101980.66;5274843;28;20036;-73
2022/05/26 08:13:37;;;;;;;12.18;5.45;;;;;;;21.14;55.30;101992.94;5267730;28;20508;-73
2022/05/26 08:16:08;;;;;;;12.93;5.28;;;;;;;21.45;52.96;101992.06;5287219;28;20036;-73
2022/05/26 08:18:40;;;;;;;14.43;4.95;;;;;;;21.07;53.16;101994.47;5275162;28;20044;-73
2022/05/26 08:21:16;;;;;;;16.55;6.30;;;;;;;20.65;54.09;101996.16;5288973;28;20578;-73
2022/05/26 08:23:47;;;;;;;14.10;6.00;;;;;;;20.97;54.37;101992.59;5296786;28;20023;-73
2022/05/26 08:26:18;;;;;;;14.73;6.20;;;;;;;21.29;53.09;101988.09;5283133;28;20103;-73
2022/05/26 08:28:49;;;;;;;13.63;4.80;;;;;;;21.85;51.18;101995.69;5274584;28;20052;-72
2022/05/26 08:31:21;;;;;;;12.57;5.25;;;;;;;21.97;50.23;102002.59;5274376;28;20468;-72
2022/05/26 08:33:53;;;;;;;13.50;4.63;;;;;;;21.91;49.20;102007.59;5292226;28;20483;-72
2022/05/26 08:36:24;;;;;;;16.27;4.50;;;;;;;21.76;49.17;102006.16;5296909;28;20024;-72
2022/05/26 08:38:56;;;;;;;12.23;4.85;;;;;;;21.88;49.11;101998.91;5279178;28;20021;-72
2022/05/26 08:41:32;;;;;;;10.85;3.80;;;;;;;21.72;49.44;101996.75;5275387;28;20421;-73
2022/05/26 08:44:11;;;;;;;11.40;4.47;;;;;;;22.32;48.86;101999.47;5278091;28;20050;-73
2022/05/26 08:46:54;;;;;;;9.98;3.75;;;;;;;23.30;47.18;102003.69;5284690;28;20028;-72
2022/05/26 08:49:38;;;;;;;14.15;4.32;;;;;;;23.42;47.54;102004.34;5275721;28;20090;-73
2022/05/26 08:52:13;;;;;;;;;;;;;;;24.29;48.19;102021.81;5292619;28;20051;-72
2022/05/26 08:54:51;;;;;;;13.52;8.25;;;;;;;24.21;44.60;102019.03;5296339;28;19908;-73
2022/05/26 08:57:39;;;;;;;13.43;7.85;;;;;;;24.50;44.60;102012.59;5283996;28;20060;-73
2022/05/26 09:00:13;;;;;;;15.88;6.90;;;;;;;24.11;43.77;102029.78;5253567;28;20021;-73
2022/05/26 09:02:45;;;;;;;11.63;6.38;;;;;;;24.43;43.23;102016.03;5257054;28;20044;-74
2022/05/26 09:05:18;;;;;;;13.57;5.25;;;;;;;24.67;42.10;102035.94;5263627;28;20559;-74
2022/05/26 09:13:51;;;;;;;16.60;8.82;;;;;;;24.27;43.82;102033.63;5262561;28;20427;-74
2022/05/26 09:16:22;;;;;;;12.80;9.40;;;;;;;24.71;42.25;102010.53;5259615;28;20028;-73
2022/05/26 09:19:12;;;;;;;14.32;7.90;;;;;;;24.46;42.99;102005.00;5258493;28;20388;-74
2022/05/26 09:21:45;;;;;;;11.68;8.13;;;;;;;24.31;41.89;102035.03;5267130;28;20071;-73
2022/05/26 09:24:25;;;;;;;13.13;8.45;;;;;;;23.99;42.34;102031.03;5272775;28;20032;-73
2022/05/26 09:27:00;;;;;;;13.65;8.18;;;;;;;23.52;42.88;102025.72;5269412;28;20032;-73
2022/05/26 09:29:37;;;;;;;15.35;7.70;;;;;;;23.04;45.07;102028.41;5276011;28;20025;-73
2022/05/26 09:32:16;;;;;;;14.38;8.27;;;;;;;23.06;44.52;102046.97;5277537;28;20368;-73
2022/05/26 09:35:08;;;;;;;14.18;7.43;;;;;;;23.29;43.87;102051.94;5275035;28;20146;-73
2022/05/26 09:37:45;;;;;;;12.43;7.72;;;;;;;23.69;43.63;102057.97;5253910;28;20029;-73
2022/05/26 09:40:18;;;;;;;13.68;8.20;;;;;;;23.11;44.53;102054.56;5256692;28;20461;-73
2022/05/26 09:42:58;;;;;;;12.63;7.95;;;;;;;23.23;43.10;102060.56;5263193;28;20032;-73
2022/05/26 09:45:42;;;;;;;10.98;7.68;;;;;;;22.93;44.27;102053.50;5267647;28;20476;-73
2022/05/26 09:48:29;;;;;;;;;;;;;;;23.67;44.31;102063.47;5256703;28;20119;-73
2022/05/26 09:51:21;;;;;;;11.02;5.97;;;;;;;23.65;42.64;102060.09;5277501;28;20322;-73
2022/05/26 09:53:55;;;;;;;10.80;5.47;;;;;;;23.04;43.50;102063.13;5272793;28;20035;-73
2022/05/26 09:56:32;;;;;;;;;;;;;;;23.65;43.89;102070.78;5292299;28;20054;-73
2022/05/26 09:59:30;;;;;;;13.95;7.53;;;;;;;23.04;44.45;102060.47;5275164;28;20062;-73
2022/05/26 10:02:15;;;;;;;10.43;6.53;;;;;;;23.27;43.39;102061.94;5266451;28;20368;-73
2022/05/26 10:05:09;;;;;;;8.00;5.63;;;;;;;23.93;42.81;102065.41;5257556;28;20082;-73
2022/05/26 10:07:55;;;;;;;13.00;6.40;;;;;;;24.22;42.28;102063.56;5272754;28;20047;-73
2022/05/26 10:10:33;;;;;;;11.82;6.68;;;;;;;23.64;41.65;102038.84;5266825;28;20063;-73
2022/05/26 10:13:24;;;;;;;8.68;6.28;;;;;;;24.31;41.40;102050.25;5255445;28;20036;-73
2022/05/26 10:16:10;;;;;;;8.30;5.68;;;;;;;25.01;40.66;102061.97;5255231;28;20107;-74
2022/05/26 10:18:57;;;;;;;6.60;4.20;;;;;;;25.47;39.73;102061.66;5261327;28;20052;-74
2022/05/26 10:21:28;;;;;;;8.35;4.97;;;;;;;25.37;37.40;102066.31;5263322;28;20074;-74
2022/05/26 10:24:30;;;;;;;8.55;5.65;;;;;;;25.39;39.82;102075.06;5262893;28;20493;-74
2022/05/26 10:27:25;;;;;;;11.80;6.15;;;;;;;25.33;39.65;102068.50;5256996;28;20116;-74
2022/05/26 10:30:20;;;;;;;8.65;4.78;;;;;;;25.16;39.56;102064.03;5260353;28;20074;-74
2022/05/26 10:33:29;;;;;;;10.55;4.35;;;;;;;25.64;38.86;102063.56;5255879;28;20125;-73
2022/05/26 10:36:23;;;;;;;9.88;4.60;;;;;;;26.10;37.45;102072.06;5261288;28;20044;-74
2022/05/26 10:39:21;;;;;;;8.27;5.22;;;;;;;25.72;37.88;102069.84;5271460;28;20033;-73
2022/05/26 10:42:03;;;;;;;9.75;4.50;;;;;;;25.89;37.71;102066.34;5276834;28;20423;-74
2022/05/26 10:45:07;;;;;;;11.00;4.38;;;;;;;26.49;38.42;102069.78;5269251;28;20761;-74
2022/05/26 10:47:59;;;;;;;12.35;5.72;;;;;;;26.48;37.31;102059.19;5256943;28;20056;-74
2022/05/26 10:50:44;;;;;;;9.35;3.97;;;;;;;26.51;36.64;102064.22;5264730;28;20093;-74
2022/05/26 10:53:37;;;;;;;9.90;4.88;;;;;;;26.38;35.75;102067.41;5263874;28;20112;-74
2022/05/26 10:56:24;;;;;;;10.90;4.55;;;;;;;26.01;36.61;102046.22;5287647;28;20040;-74
2022/05/26 10:59:08;;;;;;;7.40;4.03;;;;;;;26.33;36.71;102054.47;5264878;28;20028;-75
2022/05/26 11:01:50;;;;;;;8.70;3.78;;;;;;;26.03;36.68;102064.84;5274931;28;20029;-73
2022/05/26 11:04:47;;;;;;;6.03;3.35;;;;;;;26.01;37.21;102073.06;5265786;28;20542;-73
2022/05/26 11:07:40;;;;;;;7.32;3.55;;;;;;;26.06;37.43;102080.63;5258314;28;20047;-74
2022/05/26 11:10:15;;;;;;;10.05;3.53;;;;;;;25.59;37.51;102072.09;5271501;28;21225;-74
2022/05/26 11:12:51;;;;;;;8.23;3.70;;;;;;;25.83;37.19;102071.34;5268935;28;20016;-73
2022/05/26 11:18:31;;;;;;;8.45;3.90;;;;;;;25.29;37.57;102069.78;5275200;28;20084;-73
2022/05/26 11:21:03;;;;;;;6.32;3.42;;;;;;;25.14;37.15;102072.25;5273887;28;20025;-73
2022/05/26 11:23:38;;;;;;;8.65;4.60;;;;;;;24.65;38.06;102073.59;5268395;28;20508;-73
2022/05/26 11:26:36;;;;;;;9.50;3.92;;;;;;;25.13;37.79;102065.22;5267666;28;20028;-73
2022/05/26 11:29:14;;;;;;;8.40;4.68;;;;;;;24.78;37.87;102068.66;5263594;28;20028;-74
2022/05/26 11:37:40;;;;;;;9.18;5.55;;;;;;;23.87;39.13;102057.16;5256179;28;20037;-73
2022/05/26 11:40:13;;;;;;;12.15;4.93;;;;;;;24.23;38.96;102059.88;5265358;28;20126;-74
2022/05/26 11:42:47;;;;;;;9.57;5.20;;;;;;;23.93;38.75;102073.44;5264206;28;20031;-73
2022/05/26 11:45:36;;;;;;;6.55;4.00;;;;;;;23.59;40.06;102067.88;5264924;28;20036;-74
2022/05/26 11:48:30;;;;;;;10.70;5.15;;;;;;;23.59;40.54;102062.53;5265305;28;20037;-74
2022/05/26 11:51:21;;;;;;;9.68;4.68;;;;;;;23.01;41.79;102035.88;5264605;28;20040;-74
2022/05/26 11:53:52;;;;;;;11.52;4.78;;;;;;;23.26;40.68;102054.91;5263215;28;20033;-75
2022/05/26 11:56:23;;;;;;;12.40;5.63;;;;;;;23.50;40.08;102043.72;5266081;28;20056;-74
2022/05/26 11:59:17;;;;;;;8.15;4.47;;;;;;;23.66;41.45;102053.78;5265315;28;20032;-74
2022/05/26 12:02:08;;;;;;;11.40;5.57;;;;;;;23.87;40.75;102036.59;5264280;28;20574;-74
2022/05/26 12:04:42;;;;;;;10.65;5.13;;;;;;;23.74;39.86;102044.16;5262496;28;20021;-74
2022/05/26 12:07:21;;;;;;;10.15;4.43;;;;;;;23.48;40.25;102039.50;5262026;28;20036;-74
2022/05/26 12:09:57;;;;;;;10.35;5.05;;;;;;;23.83;40.60;102037.03;5263627;28;20652;-74
2022/05/26 12:12:30;;;;;;;9.52;4.07;;;;;;;23.91;39.79;102039.81;5265360;28;20611;-74
2022/05/26 12:15:22;;;;;;;22.73;7.03;;;;;;;24.01;40.17;102026.38;5261651;28;20032;-74
2022/05/26 12:17:57;;;;;;;10.77;3.85;;;;;;;23.90;39.81;102028.28;5254546;28;20041;-74
2022/05/26 12:20:33;;;;;;;14.50;3.75;;;;;;;23.96;40.77;102034.84;5262236;28;20028;-73
2022/05/26 12:23:17;;;;;;;15.18;3.95;;;;;;;23.93;41.00;102035.97;5273969;28;20012;-74
2022/05/26 12:26:28;;;;;;;13.93;3.78;;;;;;;24.13;39.84;102035.00;5276009;28;20050;-73
2022/05/26 12:29:37;;;;;;;18.08;3.72;;;;;;;24.08;39.75;102030.13;5264591;28;20021;-73
2022/05/26 12:32:27;;;;;;;13.55;4.35;;;;;;;24.12;39.81;102028.78;5275675;28;20028;-73
2022/05/26 12:35:18;;;;;;;11.82;3.53;;;;;;;24.01;39.99;102023.69;5270799;28;20054;-73
2022/05/26 12:38:23;;;;;;;11.38;3.35;;;;;;;23.95;40.61;102027.81;5264994;28;20385;-73
2022/05/26 12:41:07;;;;;;;12.45;3.97;;;;;;;23.87;41.18;102015.22;5274539;28;20036;-74
2022/05/26 12:44:08;;;;;;;8.73;2.85;;;;;;;24.04;40.97;102034.06;5273456;28;20050;-74
2022/05/26 12:47:01;;;;;;;11.85;3.65;;;;;;;23.80;40.73;102033.69;5265987;28;20031;-74
2022/05/26 12:50:01;;;;;;;9.07;3.20;;;;;;;24.14;40.54;102032.16;5268668;28;20051;-75